PWSweather.com
Personal Weather Stations
Station Observations
SMETHPA
Wilcat Hollow, Upper Marvin Creek, Smethport, PA 16749

Wilcat Hollow, Upper Marvin CreekSmethport, PA 16749

Lat: 41.7178, Lon: -78.5583

Elevation: 1644

Station Type: Davis Vantage Pro 2 Plus

http://www.mckeanweather.com

High Low Average
Temperature 83.3°F28.5°C 54.4°F12.4°C 68.7°F20.4°C
Dew Point 68.8°F20.4°C 52.8°F11.6°C 59.4°F15.2°C
Winds 4.0 mph 6.4 kmh Calm Calm 1.0 mph E1.6 kmh E
Wind Gusts 13.0 mph20.9 kmh -- 3.0 mph4.8 kmh
Humidity 100% 44% 76%
Pressure 30.28 in1025.4 mb 30.13 in1020.3 mb -
Precipitation 0.00 in0.0 mm - -
Hour Temp Dew Point Humidity Winds Wind Gusts Pressure Precip Precip Rate Daily Precip Total
12:00 AM 55.8°F13.2°C 54.1°F12.3°C 94% Calm Calm -- 30.26 in1024.7 mb 0.00 in0.0 mm 0.00 in0.0 mm 0.00 in0.0 mm
12:10 AM 55.7°F13.2°C 54.0°F12.2°C 94% Calm Calm -- 30.27 in1025.1 mb 0.00 in0.0 mm 0.00 in0.0 mm 0.00 in0.0 mm
12:20 AM 55.5°F13.1°C 53.8°F12.1°C 94% Calm Calm -- 30.27 in1025.1 mb 0.00 in0.0 mm 0.00 in0.0 mm 0.00 in0.0 mm
12:30 AM 55.4°F13.0°C 53.7°F12.1°C 94% Calm Calm -- 30.27 in1025.1 mb 0.00 in0.0 mm 0.00 in0.0 mm 0.00 in0.0 mm
12:40 AM 55.2°F12.9°C 53.5°F11.9°C 94% Calm Calm -- 30.26 in1024.7 mb 0.00 in0.0 mm 0.00 in0.0 mm 0.00 in0.0 mm
12:50 AM 55.0°F12.8°C 53.3°F11.8°C 94% Calm Calm -- 30.26 in1024.7 mb 0.00 in0.0 mm 0.00 in0.0 mm 0.00 in0.0 mm
01:00 AM 54.9°F12.7°C 53.2°F11.8°C 94% Calm Calm -- 30.26 in1024.7 mb 0.00 in0.0 mm 0.00 in0.0 mm 0.00 in0.0 mm
01:10 AM 54.7°F12.6°C 53.0°F11.7°C 94% Calm Calm -- 30.26 in1024.7 mb 0.00 in0.0 mm 0.00 in0.0 mm 0.00 in0.0 mm
01:20 AM 54.6°F12.6°C 52.9°F11.6°C 94% Calm Calm -- 30.26 in1024.7 mb 0.00 in0.0 mm 0.00 in0.0 mm 0.00 in0.0 mm
01:30 AM 54.5°F12.5°C 52.8°F11.6°C 94% Calm Calm -- 30.26 in1024.7 mb 0.00 in0.0 mm 0.00 in0.0 mm 0.00 in0.0 mm
01:40 AM 54.4°F12.4°C 53.0°F11.7°C 95% Calm Calm -- 30.26 in1024.7 mb 0.00 in0.0 mm 0.00 in0.0 mm 0.00 in0.0 mm
01:50 AM 54.6°F12.6°C 53.2°F11.8°C 95% Calm Calm -- 30.25 in1024.4 mb 0.00 in0.0 mm 0.00 in0.0 mm 0.00 in0.0 mm
02:00 AM 54.6°F12.6°C 53.2°F11.8°C 95% Calm Calm -- 30.25 in1024.4 mb 0.00 in0.0 mm 0.00 in0.0 mm 0.00 in0.0 mm
02:10 AM 54.7°F12.6°C 53.3°F11.8°C 95% Calm Calm -- 30.25 in1024.4 mb 0.00 in0.0 mm 0.00 in0.0 mm 0.00 in0.0 mm
02:20 AM 54.8°F12.7°C 53.4°F11.9°C 95% Calm Calm -- 30.25 in1024.4 mb 0.00 in0.0 mm 0.00 in0.0 mm 0.00 in0.0 mm
02:30 AM 54.8°F12.7°C 53.4°F11.9°C 95% Calm Calm -- 30.25 in1024.4 mb 0.00 in0.0 mm 0.00 in0.0 mm 0.00 in0.0 mm
02:40 AM 54.9°F12.7°C 53.5°F11.9°C 95% Calm Calm -- 30.25 in1024.4 mb 0.00 in0.0 mm 0.00 in0.0 mm 0.00 in0.0 mm
02:50 AM 54.9°F12.7°C 53.5°F11.9°C 95% Calm Calm -- 30.26 in1024.7 mb 0.00 in0.0 mm 0.00 in0.0 mm 0.00 in0.0 mm
03:00 AM 55.0°F12.8°C 53.6°F12.0°C 95% Calm Calm -- 30.26 in1024.7 mb 0.00 in0.0 mm 0.00 in0.0 mm 0.00 in0.0 mm
03:10 AM 54.9°F12.7°C 53.8°F12.1°C 96% Calm Calm -- 30.26 in1024.7 mb 0.00 in0.0 mm 0.00 in0.0 mm 0.00 in0.0 mm
03:20 AM 55.0°F12.8°C 53.9°F12.2°C 96% Calm Calm -- 30.26 in1024.7 mb 0.00 in0.0 mm 0.00 in0.0 mm 0.00 in0.0 mm
03:30 AM 55.0°F12.8°C 53.9°F12.2°C 96% Calm Calm -- 30.26 in1024.7 mb 0.00 in0.0 mm 0.00 in0.0 mm 0.00 in0.0 mm
03:40 AM 55.0°F12.8°C 53.9°F12.2°C 96% Calm Calm -- 30.26 in1024.7 mb 0.00 in0.0 mm 0.00 in0.0 mm 0.00 in0.0 mm
03:50 AM 55.0°F12.8°C 53.9°F12.2°C 96% Calm Calm -- 30.26 in1024.7 mb 0.00 in0.0 mm 0.00 in0.0 mm 0.00 in0.0 mm
04:00 AM 55.1°F12.8°C 54.0°F12.2°C 96% Calm Calm -- 30.27 in1025.1 mb 0.00 in0.0 mm 0.00 in0.0 mm 0.00 in0.0 mm
04:10 AM 55.1°F12.8°C 54.0°F12.2°C 96% Calm Calm -- 30.26 in1024.7 mb 0.00 in0.0 mm 0.00 in0.0 mm 0.00 in0.0 mm
04:20 AM 55.1°F12.8°C 54.0°F12.2°C 96% Calm Calm -- 30.26 in1024.7 mb 0.00 in0.0 mm 0.00 in0.0 mm 0.00 in0.0 mm
04:30 AM 55.1°F12.8°C 54.0°F12.2°C 96% Calm Calm -- 30.26 in1024.7 mb 0.00 in0.0 mm 0.00 in0.0 mm 0.00 in0.0 mm
04:40 AM 55.1°F12.8°C 54.0°F12.2°C 96% Calm Calm -- 30.25 in1024.4 mb 0.00 in0.0 mm 0.00 in0.0 mm 0.00 in0.0 mm
04:50 AM 55.0°F12.8°C 54.2°F12.3°C 97% Calm Calm -- 30.25 in1024.4 mb 0.00 in0.0 mm 0.00 in0.0 mm 0.00 in0.0 mm
05:00 AM 55.0°F12.8°C 54.2°F12.3°C 97% Calm Calm -- 30.25 in1024.4 mb 0.00 in0.0 mm 0.00 in0.0 mm 0.00 in0.0 mm
05:10 AM 55.0°F12.8°C 54.2°F12.3°C 97% Calm Calm -- 30.25 in1024.4 mb 0.00 in0.0 mm 0.00 in0.0 mm 0.00 in0.0 mm
05:20 AM 55.0°F12.8°C 54.2°F12.3°C 97% Calm Calm -- 30.25 in1024.4 mb 0.00 in0.0 mm 0.00 in0.0 mm 0.00 in0.0 mm
05:30 AM 55.0°F12.8°C 54.2°F12.3°C 97% Calm Calm -- 30.25 in1024.4 mb 0.00 in0.0 mm 0.00 in0.0 mm 0.00 in0.0 mm
05:40 AM 55.1°F12.8°C 54.3°F12.4°C 97% Calm Calm -- 30.25 in1024.4 mb 0.00 in0.0 mm 0.00 in0.0 mm 0.00 in0.0 mm
05:50 AM 55.3°F12.9°C 54.5°F12.5°C 97% Calm Calm -- 30.25 in1024.4 mb 0.00 in0.0 mm 0.00 in0.0 mm 0.00 in0.0 mm
06:00 AM 55.4°F13.0°C 54.6°F12.6°C 97% Calm Calm -- 30.26 in1024.7 mb 0.00 in0.0 mm 0.00 in0.0 mm 0.00 in0.0 mm
06:10 AM 55.7°F13.2°C 54.9°F12.7°C 97% Calm Calm -- 30.26 in1024.7 mb 0.00 in0.0 mm 0.00 in0.0 mm 0.00 in0.0 mm
06:20 AM 56.0°F13.3°C 55.2°F12.9°C 97% Calm Calm -- 30.27 in1025.1 mb 0.00 in0.0 mm 0.00 in0.0 mm 0.00 in0.0 mm
06:30 AM 56.4°F13.6°C 55.6°F13.1°C 97% Calm Calm -- 30.26 in1024.7 mb 0.00 in0.0 mm 0.00 in0.0 mm 0.00 in0.0 mm
06:40 AM 56.8°F13.8°C 56.8°F13.8°C 100% Calm Calm -- 30.28 in1025.4 mb 0.00 in0.0 mm 0.00 in0.0 mm 0.00 in0.0 mm
06:50 AM 57.3°F14.1°C 57.3°F14.1°C 100% Calm Calm 1.0 mph1.6 kmh 30.28 in1025.4 mb 0.00 in0.0 mm 0.00 in0.0 mm 0.00 in0.0 mm
07:00 AM 57.9°F14.4°C 57.9°F14.4°C 100% Calm Calm 1.0 mph1.6 kmh 30.28 in1025.4 mb 0.00 in0.0 mm 0.00 in0.0 mm 0.00 in0.0 mm
07:10 AM 58.6°F14.8°C 58.6°F14.8°C 100% Calm Calm 1.0 mph1.6 kmh 30.27 in1025.1 mb 0.00 in0.0 mm 0.00 in0.0 mm 0.00 in0.0 mm
07:20 AM 59.6°F15.3°C 59.6°F15.3°C 100% Calm Calm -- 30.26 in1024.7 mb 0.00 in0.0 mm 0.00 in0.0 mm 0.00 in0.0 mm
07:30 AM 60.2°F15.7°C 60.2°F15.7°C 100% Calm Calm 1.0 mph1.6 kmh 30.26 in1024.7 mb 0.00 in0.0 mm 0.00 in0.0 mm 0.00 in0.0 mm
07:40 AM 61.2°F16.2°C 60.3°F15.7°C 97% Calm Calm 1.0 mph1.6 kmh 30.26 in1024.7 mb 0.00 in0.0 mm 0.00 in0.0 mm 0.00 in0.0 mm
07:50 AM 62.5°F16.9°C 61.0°F16.1°C 95% Calm Calm 1.0 mph1.6 kmh 30.26 in1024.7 mb 0.00 in0.0 mm 0.00 in0.0 mm 0.00 in0.0 mm
08:00 AM 64.2°F17.9°C 61.2°F16.2°C 90% Calm Calm 2.0 mph3.2 kmh 30.25 in1024.4 mb 0.00 in0.0 mm 0.00 in0.0 mm 0.00 in0.0 mm
08:10 AM 66.1°F18.9°C 61.8°F16.6°C 86% 1.0 mph N1.6 kmh N 3.0 mph4.8 kmh 30.25 in1024.4 mb 0.00 in0.0 mm 0.00 in0.0 mm 0.00 in0.0 mm
08:20 AM 68.3°F20.2°C 62.9°F17.2°C 83% 1.0 mph N1.6 kmh N 3.0 mph4.8 kmh 30.25 in1024.4 mb 0.00 in0.0 mm 0.00 in0.0 mm 0.00 in0.0 mm
08:30 AM 70.0°F21.1°C 62.8°F17.1°C 78% Calm Calm 2.0 mph3.2 kmh 30.25 in1024.4 mb 0.00 in0.0 mm 0.00 in0.0 mm 0.00 in0.0 mm
08:40 AM 71.6°F22.0°C 63.6°F17.6°C 76% Calm Calm 2.0 mph3.2 kmh 30.25 in1024.4 mb 0.00 in0.0 mm 0.00 in0.0 mm 0.00 in0.0 mm
08:50 AM 73.0°F22.8°C 64.2°F17.9°C 74% 1.0 mph N1.6 kmh N 3.0 mph4.8 kmh 30.25 in1024.4 mb 0.00 in0.0 mm 0.00 in0.0 mm 0.00 in0.0 mm
09:00 AM 74.3°F23.5°C 63.9°F17.7°C 70% 1.0 mph N1.6 kmh N 4.0 mph6.4 kmh 30.25 in1024.4 mb 0.00 in0.0 mm 0.00 in0.0 mm 0.00 in0.0 mm
09:10 AM 75.7°F24.3°C 64.4°F18.0°C 68% 2.0 mph N3.2 kmh N 3.0 mph4.8 kmh 30.24 in1024.0 mb 0.00 in0.0 mm 0.00 in0.0 mm 0.00 in0.0 mm
09:20 AM 76.0°F24.4°C 62.9°F17.2°C 64% 1.0 mph N1.6 kmh N 3.0 mph4.8 kmh 30.24 in1024.0 mb 0.00 in0.0 mm 0.00 in0.0 mm 0.00 in0.0 mm
09:30 AM 76.5°F24.7°C 63.9°F17.7°C 65% 1.0 mph N1.6 kmh N 2.0 mph3.2 kmh 30.24 in1024.0 mb 0.00 in0.0 mm 0.00 in0.0 mm 0.00 in0.0 mm
09:40 AM 77.2°F25.1°C 62.7°F17.1°C 61% Calm Calm 4.0 mph6.4 kmh 30.24 in1024.0 mb 0.00 in0.0 mm 0.00 in0.0 mm 0.00 in0.0 mm
09:50 AM 77.7°F25.4°C 64.5°F18.1°C 64% 1.0 mph N1.6 kmh N 4.0 mph6.4 kmh 30.24 in1024.0 mb 0.00 in0.0 mm 0.00 in0.0 mm 0.00 in0.0 mm
10:00 AM 78.0°F25.6°C 61.5°F16.4°C 57% 1.0 mph W1.6 kmh W 8.0 mph12.9 kmh 30.23 in1023.7 mb 0.00 in0.0 mm 0.00 in0.0 mm 0.00 in0.0 mm
10:10 AM 78.5°F25.8°C 60.5°F15.8°C 54% 2.0 mph WSW3.2 kmh WSW 5.0 mph8.0 kmh 30.24 in1024.0 mb 0.00 in0.0 mm 0.00 in0.0 mm 0.00 in0.0 mm
10:20 AM 78.1°F25.6°C 61.6°F16.4°C 57% 1.0 mph S1.6 kmh S 6.0 mph9.7 kmh 30.23 in1023.7 mb 0.00 in0.0 mm 0.00 in0.0 mm 0.00 in0.0 mm
10:30 AM 78.5°F25.8°C 61.5°F16.4°C 56% 2.0 mph WSW3.2 kmh WSW 5.0 mph8.0 kmh 30.23 in1023.7 mb 0.00 in0.0 mm 0.00 in0.0 mm 0.00 in0.0 mm
10:40 AM 78.9°F26.1°C 60.8°F16.0°C 54% 2.0 mph NW3.2 kmh NW 5.0 mph8.0 kmh 30.23 in1023.7 mb 0.00 in0.0 mm 0.00 in0.0 mm 0.00 in0.0 mm
10:50 AM 79.1°F26.2°C 60.5°F15.8°C 53% 2.0 mph E3.2 kmh E 7.0 mph11.3 kmh 30.22 in1023.4 mb 0.00 in0.0 mm 0.00 in0.0 mm 0.00 in0.0 mm
11:00 AM 79.4°F26.3°C 59.1°F15.1°C 50% 1.0 mph ENE1.6 kmh ENE 4.0 mph6.4 kmh 30.22 in1023.4 mb 0.00 in0.0 mm 0.00 in0.0 mm 0.00 in0.0 mm
11:10 AM 79.4°F26.3°C 59.7°F15.4°C 51% 2.0 mph E3.2 kmh E 5.0 mph8.0 kmh 30.22 in1023.4 mb 0.00 in0.0 mm 0.00 in0.0 mm 0.00 in0.0 mm
11:20 AM 79.4°F26.3°C 60.2°F15.7°C 52% 2.0 mph E3.2 kmh E 7.0 mph11.3 kmh 30.22 in1023.4 mb 0.00 in0.0 mm 0.00 in0.0 mm 0.00 in0.0 mm
11:30 AM 79.9°F26.6°C 62.8°F17.1°C 56% 3.0 mph NNE4.8 kmh NNE 7.0 mph11.3 kmh 30.22 in1023.4 mb 0.00 in0.0 mm 0.00 in0.0 mm 0.00 in0.0 mm
11:40 AM 80.2°F26.8°C 59.3°F15.2°C 49% 2.0 mph E3.2 kmh E 7.0 mph11.3 kmh 30.21 in1023.0 mb 0.00 in0.0 mm 0.00 in0.0 mm 0.00 in0.0 mm
11:50 AM 80.3°F26.8°C 60.5°F15.8°C 51% 3.0 mph NE4.8 kmh NE 11.0 mph17.7 kmh 30.21 in1023.0 mb 0.00 in0.0 mm 0.00 in0.0 mm 0.00 in0.0 mm
12:00 PM 80.5°F26.9°C 61.3°F16.3°C 52% 2.0 mph NNE3.2 kmh NNE 9.0 mph14.5 kmh 30.21 in1023.0 mb 0.00 in0.0 mm 0.00 in0.0 mm 0.00 in0.0 mm
12:10 PM 80.3°F26.8°C 60.0°F15.6°C 50% 3.0 mph S4.8 kmh S 8.0 mph12.9 kmh 30.21 in1023.0 mb 0.00 in0.0 mm 0.00 in0.0 mm 0.00 in0.0 mm
12:20 PM 81.1°F27.3°C 63.4°F17.4°C 55% 2.0 mph NNW3.2 kmh NNW 7.0 mph11.3 kmh 30.20 in1022.7 mb 0.00 in0.0 mm 0.00 in0.0 mm 0.00 in0.0 mm
12:30 PM 80.9°F27.2°C 61.1°F16.2°C 51% 2.0 mph NW3.2 kmh NW 9.0 mph14.5 kmh 30.19 in1022.4 mb 0.00 in0.0 mm 0.00 in0.0 mm 0.00 in0.0 mm
12:40 PM 80.9°F27.2°C 58.2°F14.6°C 46% 3.0 mph ENE4.8 kmh ENE 13.0 mph20.9 kmh 30.19 in1022.4 mb 0.00 in0.0 mm 0.00 in0.0 mm 0.00 in0.0 mm
12:50 PM 81.4°F27.4°C 58.0°F14.4°C 45% 3.0 mph WSW4.8 kmh WSW 8.0 mph12.9 kmh 30.19 in1022.4 mb 0.00 in0.0 mm 0.00 in0.0 mm 0.00 in0.0 mm
01:00 PM 81.6°F27.6°C 58.8°F14.9°C 46% 3.0 mph NW4.8 kmh NW 8.0 mph12.9 kmh 30.19 in1022.4 mb 0.00 in0.0 mm 0.00 in0.0 mm 0.00 in0.0 mm
01:10 PM 81.1°F27.3°C 57.1°F13.9°C 44% 4.0 mph S6.4 kmh S 8.0 mph12.9 kmh 30.19 in1022.4 mb 0.00 in0.0 mm 0.00 in0.0 mm 0.00 in0.0 mm
01:20 PM 81.6°F27.6°C 60.0°F15.6°C 48% 3.0 mph SW4.8 kmh SW 11.0 mph17.7 kmh 30.19 in1022.4 mb 0.00 in0.0 mm 0.00 in0.0 mm 0.00 in0.0 mm
01:30 PM 82.1°F27.8°C 61.0°F16.1°C 49% 3.0 mph W4.8 kmh W 10.0 mph16.1 kmh 30.19 in1022.4 mb 0.00 in0.0 mm 0.00 in0.0 mm 0.00 in0.0 mm
01:40 PM 82.1°F27.8°C 61.0°F16.1°C 49% 4.0 mph SSW6.4 kmh SSW 8.0 mph12.9 kmh 30.20 in1022.7 mb 0.00 in0.0 mm 0.00 in0.0 mm 0.00 in0.0 mm
01:50 PM 82.0°F27.8°C 63.7°F17.6°C 54% 2.0 mph WSW3.2 kmh WSW 8.0 mph12.9 kmh 30.19 in1022.4 mb 0.00 in0.0 mm 0.00 in0.0 mm 0.00 in0.0 mm
02:00 PM 82.5°F28.1°C 62.5°F16.9°C 51% 3.0 mph WSW4.8 kmh WSW 8.0 mph12.9 kmh 30.19 in1022.4 mb 0.00 in0.0 mm 0.00 in0.0 mm 0.00 in0.0 mm
02:10 PM 82.8°F28.2°C 61.7°F16.5°C 49% 3.0 mph W4.8 kmh W 8.0 mph12.9 kmh 30.18 in1022.0 mb 0.00 in0.0 mm 0.00 in0.0 mm 0.00 in0.0 mm
02:20 PM 82.6°F28.1°C 60.9°F16.1°C 48% 2.0 mph SW3.2 kmh SW 7.0 mph11.3 kmh 30.18 in1022.0 mb 0.00 in0.0 mm 0.00 in0.0 mm 0.00 in0.0 mm
02:30 PM 83.0°F28.3°C 64.1°F17.8°C 53% 3.0 mph SW4.8 kmh SW 8.0 mph12.9 kmh 30.17 in1021.7 mb 0.00 in0.0 mm 0.00 in0.0 mm 0.00 in0.0 mm
02:40 PM 82.9°F28.3°C 62.4°F16.9°C 50% 2.0 mph SSW3.2 kmh SSW 6.0 mph9.7 kmh 30.17 in1021.7 mb 0.00 in0.0 mm 0.00 in0.0 mm 0.00 in0.0 mm
02:50 PM 82.9°F28.3°C 61.2°F16.2°C 48% 2.0 mph SW3.2 kmh SW 9.0 mph14.5 kmh 30.17 in1021.7 mb 0.00 in0.0 mm 0.00 in0.0 mm 0.00 in0.0 mm
03:00 PM 82.8°F28.2°C 59.9°F15.5°C 46% 3.0 mph WSW4.8 kmh WSW 6.0 mph9.7 kmh 30.17 in1021.7 mb 0.00 in0.0 mm 0.00 in0.0 mm 0.00 in0.0 mm
03:10 PM 83.0°F28.3°C 63.0°F17.2°C 51% 2.0 mph SW3.2 kmh SW 7.0 mph11.3 kmh 30.17 in1021.7 mb 0.00 in0.0 mm 0.00 in0.0 mm 0.00 in0.0 mm
03:20 PM 83.0°F28.3°C 59.5°F15.3°C 45% 3.0 mph WSW4.8 kmh WSW 10.0 mph16.1 kmh 30.16 in1021.3 mb 0.00 in0.0 mm 0.00 in0.0 mm 0.00 in0.0 mm
03:30 PM 83.0°F28.3°C 59.5°F15.3°C 45% 2.0 mph SSW3.2 kmh SSW 7.0 mph11.3 kmh 30.16 in1021.3 mb 0.00 in0.0 mm 0.00 in0.0 mm 0.00 in0.0 mm
03:40 PM 82.9°F28.3°C 60.6°F15.9°C 47% 2.0 mph SSE3.2 kmh SSE 7.0 mph11.3 kmh 30.16 in1021.3 mb 0.00 in0.0 mm 0.00 in0.0 mm 0.00 in0.0 mm
03:50 PM 83.3°F28.5°C 60.4°F15.8°C 46% 2.0 mph WSW3.2 kmh WSW 8.0 mph12.9 kmh 30.16 in1021.3 mb 0.00 in0.0 mm 0.00 in0.0 mm 0.00 in0.0 mm
04:00 PM 83.0°F28.3°C 61.3°F16.3°C 48% 3.0 mph WSW4.8 kmh WSW 7.0 mph11.3 kmh 30.16 in1021.3 mb 0.00 in0.0 mm 0.00 in0.0 mm 0.00 in0.0 mm
04:10 PM 83.1°F28.4°C 63.1°F17.3°C 51% 2.0 mph WSW3.2 kmh WSW 10.0 mph16.1 kmh 30.16 in1021.3 mb 0.00 in0.0 mm 0.00 in0.0 mm 0.00 in0.0 mm
04:20 PM 82.9°F28.3°C 60.0°F15.6°C 46% 3.0 mph W4.8 kmh W 8.0 mph12.9 kmh 30.15 in1021.0 mb 0.00 in0.0 mm 0.00 in0.0 mm 0.00 in0.0 mm
04:30 PM 82.7°F28.2°C 60.4°F15.8°C 47% 3.0 mph WSW4.8 kmh WSW 8.0 mph12.9 kmh 30.15 in1021.0 mb 0.00 in0.0 mm 0.00 in0.0 mm 0.00 in0.0 mm
04:40 PM 82.7°F28.2°C 62.2°F16.8°C 50% 3.0 mph WSW4.8 kmh WSW 8.0 mph12.9 kmh 30.15 in1021.0 mb 0.00 in0.0 mm 0.00 in0.0 mm 0.00 in0.0 mm
04:50 PM 82.7°F28.2°C 63.3°F17.4°C 52% 3.0 mph WSW4.8 kmh WSW 5.0 mph8.0 kmh 30.15 in1021.0 mb 0.00 in0.0 mm 0.00 in0.0 mm 0.00 in0.0 mm
05:00 PM 82.5°F28.1°C 63.6°F17.6°C 53% 2.0 mph WSW3.2 kmh WSW 7.0 mph11.3 kmh 30.15 in1021.0 mb 0.00 in0.0 mm 0.00 in0.0 mm 0.00 in0.0 mm
05:10 PM 82.5°F28.1°C 62.5°F16.9°C 51% 2.0 mph WSW3.2 kmh WSW 6.0 mph9.7 kmh 30.14 in1020.7 mb 0.00 in0.0 mm 0.00 in0.0 mm 0.00 in0.0 mm
05:20 PM 82.3°F27.9°C 61.8°F16.6°C 50% 2.0 mph SW3.2 kmh SW 7.0 mph11.3 kmh 30.14 in1020.7 mb 0.00 in0.0 mm 0.00 in0.0 mm 0.00 in0.0 mm
05:30 PM 81.8°F27.7°C 64.1°F17.8°C 55% 2.0 mph WSW3.2 kmh WSW 6.0 mph9.7 kmh 30.14 in1020.7 mb 0.00 in0.0 mm 0.00 in0.0 mm 0.00 in0.0 mm
05:40 PM 81.6°F27.6°C 62.3°F16.8°C 52% 1.0 mph WSW1.6 kmh WSW 6.0 mph9.7 kmh 30.13 in1020.3 mb 0.00 in0.0 mm 0.00 in0.0 mm 0.00 in0.0 mm
05:50 PM 81.0°F27.2°C 62.3°F16.8°C 53% 1.0 mph WSW1.6 kmh WSW 5.0 mph8.0 kmh 30.13 in1020.3 mb 0.00 in0.0 mm 0.00 in0.0 mm 0.00 in0.0 mm
06:00 PM 80.7°F27.1°C 64.1°F17.8°C 57% 2.0 mph SW3.2 kmh SW 5.0 mph8.0 kmh 30.13 in1020.3 mb 0.00 in0.0 mm 0.00 in0.0 mm 0.00 in0.0 mm
06:10 PM 80.1°F26.7°C 67.3°F19.6°C 65% 1.0 mph SW1.6 kmh SW 5.0 mph8.0 kmh 30.13 in1020.3 mb 0.00 in0.0 mm 0.00 in0.0 mm 0.00 in0.0 mm
06:20 PM 79.5°F26.4°C 67.1°F19.5°C 66% 1.0 mph WSW1.6 kmh WSW 5.0 mph8.0 kmh 30.13 in1020.3 mb 0.00 in0.0 mm 0.00 in0.0 mm 0.00 in0.0 mm
06:30 PM 79.0°F26.1°C 68.8°F20.4°C 71% 1.0 mph WSW1.6 kmh WSW 2.0 mph3.2 kmh 30.13 in1020.3 mb 0.00 in0.0 mm 0.00 in0.0 mm 0.00 in0.0 mm
06:40 PM 79.1°F26.2°C 67.6°F19.8°C 68% Calm Calm 1.0 mph1.6 kmh 30.14 in1020.7 mb 0.00 in0.0 mm 0.00 in0.0 mm 0.00 in0.0 mm
06:50 PM 78.9°F26.1°C 68.3°F20.2°C 70% Calm Calm 1.0 mph1.6 kmh 30.13 in1020.3 mb 0.00 in0.0 mm 0.00 in0.0 mm 0.00 in0.0 mm
07:00 PM 78.3°F25.7°C 67.7°F19.8°C 70% Calm Calm 1.0 mph1.6 kmh 30.13 in1020.3 mb 0.00 in0.0 mm 0.00 in0.0 mm 0.00 in0.0 mm
07:10 PM 76.9°F24.9°C 67.2°F19.6°C 72% Calm Calm -- 30.13 in1020.3 mb 0.00 in0.0 mm 0.00 in0.0 mm 0.00 in0.0 mm
07:20 PM 75.6°F24.2°C 66.3°F19.1°C 73% Calm Calm -- 30.13 in1020.3 mb 0.00 in0.0 mm 0.00 in0.0 mm 0.00 in0.0 mm
07:30 PM 74.3°F23.5°C 65.9°F18.8°C 75% Calm Calm -- 30.13 in1020.3 mb 0.00 in0.0 mm 0.00 in0.0 mm 0.00 in0.0 mm
07:40 PM 72.3°F22.4°C 65.1°F18.4°C 78% Calm Calm 1.0 mph1.6 kmh 30.13 in1020.3 mb 0.00 in0.0 mm 0.00 in0.0 mm 0.00 in0.0 mm
07:50 PM 70.6°F21.4°C 64.5°F18.1°C 81% Calm Calm 1.0 mph1.6 kmh 30.13 in1020.3 mb 0.00 in0.0 mm 0.00 in0.0 mm 0.00 in0.0 mm
08:00 PM 69.4°F20.8°C 64.0°F17.8°C 83% Calm Calm -- 30.13 in1020.3 mb 0.00 in0.0 mm 0.00 in0.0 mm 0.00 in0.0 mm
08:10 PM 68.4°F20.2°C 63.4°F17.4°C 84% Calm Calm -- 30.13 in1020.3 mb 0.00 in0.0 mm 0.00 in0.0 mm 0.00 in0.0 mm
08:20 PM 67.5°F19.7°C 62.8°F17.1°C 85% Calm Calm 1.0 mph1.6 kmh 30.14 in1020.7 mb 0.00 in0.0 mm 0.00 in0.0 mm 0.00 in0.0 mm
08:30 PM 66.7°F19.3°C 62.7°F17.1°C 87% Calm Calm -- 30.14 in1020.7 mb 0.00 in0.0 mm 0.00 in0.0 mm 0.00 in0.0 mm
08:40 PM 66.2°F19.0°C 62.2°F16.8°C 87% Calm Calm -- 30.14 in1020.7 mb 0.00 in0.0 mm 0.00 in0.0 mm 0.00 in0.0 mm
08:50 PM 65.6°F18.7°C 61.9°F16.6°C 88% Calm Calm -- 30.15 in1021.0 mb 0.00 in0.0 mm 0.00 in0.0 mm 0.00 in0.0 mm
09:00 PM 65.0°F18.3°C 61.4°F16.3°C 88% Calm Calm -- 30.14 in1020.7 mb 0.00 in0.0 mm 0.00 in0.0 mm 0.00 in0.0 mm
09:10 PM 64.5°F18.1°C 61.2°F16.2°C 89% Calm Calm -- 30.14 in1020.7 mb 0.00 in0.0 mm 0.00 in0.0 mm 0.00 in0.0 mm
09:20 PM 63.9°F17.7°C 60.6°F15.9°C 89% Calm Calm -- 30.14 in1020.7 mb 0.00 in0.0 mm 0.00 in0.0 mm 0.00 in0.0 mm
09:30 PM 63.3°F17.4°C 60.3°F15.7°C 90% Calm Calm -- 30.15 in1021.0 mb 0.00 in0.0 mm 0.00 in0.0 mm 0.00 in0.0 mm
09:40 PM 62.9°F17.2°C 60.2°F15.7°C 91% Calm Calm -- 30.15 in1021.0 mb 0.00 in0.0 mm 0.00 in0.0 mm 0.00 in0.0 mm
09:50 PM 62.4°F16.9°C 59.4°F15.2°C 90% Calm Calm -- 30.15 in1021.0 mb 0.00 in0.0 mm 0.00 in0.0 mm 0.00 in0.0 mm
10:00 PM 62.0°F16.7°C 59.3°F15.2°C 91% Calm Calm -- 30.15 in1021.0 mb 0.00 in0.0 mm 0.00 in0.0 mm 0.00 in0.0 mm
10:10 PM 61.5°F16.4°C 58.8°F14.9°C 91% Calm Calm -- 30.15 in1021.0 mb 0.00 in0.0 mm 0.00 in0.0 mm 0.00 in0.0 mm
10:20 PM 61.1°F16.2°C 58.5°F14.7°C 91% Calm Calm -- 30.15 in1021.0 mb 0.00 in0.0 mm 0.00 in0.0 mm 0.00 in0.0 mm
10:30 PM 60.7°F15.9°C 58.4°F14.7°C 92% Calm Calm -- 30.15 in1021.0 mb 0.00 in0.0 mm 0.00 in0.0 mm 0.00 in0.0 mm
10:40 PM 60.5°F15.8°C 58.2°F14.6°C 92% Calm Calm -- 30.15 in1021.0 mb 0.00 in0.0 mm 0.00 in0.0 mm 0.00 in0.0 mm
10:50 PM 60.3°F15.7°C 58.0°F14.4°C 92% Calm Calm -- 30.15 in1021.0 mb 0.00 in0.0 mm 0.00 in0.0 mm 0.00 in0.0 mm
11:00 PM 60.0°F15.6°C 57.7°F14.3°C 92% Calm Calm -- 30.15 in1021.0 mb 0.00 in0.0 mm 0.00 in0.0 mm 0.00 in0.0 mm
11:10 PM 59.8°F15.4°C 57.8°F14.3°C 93% Calm Calm -- 30.16 in1021.3 mb 0.00 in0.0 mm 0.00 in0.0 mm 0.00 in0.0 mm
11:20 PM 59.5°F15.3°C 57.5°F14.2°C 93% Calm Calm -- 30.16 in1021.3 mb 0.00 in0.0 mm 0.00 in0.0 mm 0.00 in0.0 mm
11:30 PM 59.2°F15.1°C 57.2°F14.0°C 93% Calm Calm -- 30.17 in1021.7 mb 0.00 in0.0 mm 0.00 in0.0 mm 0.00 in0.0 mm
11:40 PM 59.0°F15.0°C 57.0°F13.9°C 93% Calm Calm -- 30.17 in1021.7 mb 0.00 in0.0 mm 0.00 in0.0 mm 0.00 in0.0 mm
11:50 PM 58.7°F14.8°C 56.7°F13.7°C 93% Calm Calm -- 30.17 in1021.7 mb 0.00 in0.0 mm 0.00 in0.0 mm 0.00 in0.0 mm